Time,TemperatureF,DewpointF,PressureIn,WindDirection,WindDirectionDegrees,WindSpeedMPH,WindSpeedGustMPH,Humidity,HourlyPrecipIn,Conditions,Clouds,dailyrainin,SoftwareType,DateUTC
2013-03-18 00:00:00,26.6,6.6,30.30,NNW,340,5.0,6.0,42,0.00,,CLR,0.00,VWS V14.01,2013-03-18 04:00:00,
2013-03-18 00:01:00,26.6,6.6,30.30,NNW,340,5.0,5.0,42,0.00,,CLR,0.00,VWS V14.01,2013-03-18 04:01:00,
2013-03-18 00:06:00,26.6,6.6,30.30,NNW,340,5.0,5.0,42,0.00,,CLR,0.00,VWS V14.01,2013-03-18 04:06:00,
2013-03-18 00:20:00,26.6,6.6,30.30,NNW,340,5.0,5.0,42,0.00,,CLR,0.00,VWS V14.01,2013-03-18 04:20:00,
2013-03-18 00:25:00,26.6,6.6,30.30,NNW,340,5.0,5.0,42,0.00,,CLR,0.00,VWS V14.01,2013-03-18 04:25:00,
2013-03-18 00:34:00,26.6,6.6,30.30,NNW,340,5.0,5.0,42,0.00,,CLR,0.00,VWS V14.01,2013-03-18 04:34:00,
2013-03-18 00:41:00,26.6,6.6,30.30,NNW,340,5.0,5.0,42,0.00,,CLR,0.00,VWS V14.01,2013-03-18 04:41:00,
2013-03-18 00:46:00,26.6,6.6,30.30,NNW,340,5.0,5.0,42,0.00,,CLR,0.00,VWS V14.01,2013-03-18 04:46:00,
2013-03-18 00:51:00,26.6,6.6,30.30,NNW,340,5.0,5.0,42,0.00,,CLR,0.00,VWS V14.01,2013-03-18 04:51:00,
2013-03-18 00:56:00,26.6,6.6,30.30,NNW,340,5.0,5.0,42,0.00,,CLR,0.00,VWS V14.01,2013-03-18 04:56:00,
2013-03-18 01:01:00,26.6,6.6,30.31,North,350,5.0,5.0,42,0.00,,CLR,0.00,VWS V14.01,2013-03-18 05:01:00,
2013-03-18 01:20:00,26.6,6.6,30.31,North,350,5.0,5.0,42,0.00,,CLR,0.00,VWS V14.01,2013-03-18 05:20:00,
2013-03-18 01:45:00,26.6,6.6,30.31,North,350,5.0,5.0,42,0.00,,CLR,0.00,VWS V14.01,2013-03-18 05:45:00,
2013-03-18 01:51:00,26.6,6.6,30.31,North,350,5.0,5.0,42,0.00,,CLR,0.00,VWS V14.01,2013-03-18 05:51:00,
2013-03-18 01:56:00,26.6,6.6,30.33,North,360,8.0,8.0,42,0.00,,CLR,0.00,VWS V14.01,2013-03-18 05:56:00,
2013-03-18 01:57:00,26.6,6.6,30.31,North,350,5.0,5.0,42,0.00,,CLR,0.00,VWS V14.01,2013-03-18 05:57:00,
2013-03-18 02:02:00,26.6,6.6,30.33,North,360,8.0,8.0,42,0.00,,CLR,0.00,VWS V14.01,2013-03-18 06:02:00,
2013-03-18 02:09:00,26.6,6.6,30.33,North,360,8.0,8.0,42,0.00,,CLR,0.00,VWS V14.01,2013-03-18 06:09:00,
2013-03-18 02:15:00,26.6,6.6,30.33,North,360,8.0,8.0,42,0.00,,CLR,0.00,VWS V14.01,2013-03-18 06:15:00,
2013-03-18 02:20:00,26.6,6.6,30.33,North,360,8.0,8.0,42,0.00,,CLR,0.00,VWS V14.01,2013-03-18 06:20:00,
2013-03-18 02:28:00,26.6,6.6,30.33,North,360,8.0,8.0,42,0.00,,CLR,0.00,VWS V14.01,2013-03-18 06:28:00,
2013-03-18 02:35:00,26.6,6.6,30.33,North,360,8.0,8.0,42,0.00,,CLR,0.00,VWS V14.01,2013-03-18 06:35:00,
2013-03-18 02:40:00,26.6,6.6,30.33,North,360,8.0,8.0,42,0.00,,CLR,0.00,VWS V14.01,2013-03-18 06:40:00,
2013-03-18 02:45:00,26.6,6.6,30.33,North,360,8.0,8.0,42,0.00,,CLR,0.00,VWS V14.01,2013-03-18 06:45:00,
2013-03-18 02:51:00,26.6,6.6,30.33,North,360,8.0,8.0,42,0.00,,CLR,0.00,VWS V14.01,2013-03-18 06:51:00,
2013-03-18 02:56:00,26.6,6.6,30.33,North,360,8.0,8.0,42,0.00,,CLR,0.00,VWS V14.01,2013-03-18 06:56:00,
2013-03-18 03:01:00,26.6,6.6,30.35,NNE,20,11.0,11.0,42,0.00,,CLR,0.00,VWS V14.01,2013-03-18 07:01:00,
2013-03-18 03:06:00,26.6,6.6,30.35,NNE,20,11.0,11.0,42,0.00,,CLR,0.00,VWS V14.01,2013-03-18 07:06:00,
2013-03-18 03:11:00,26.6,6.6,30.35,NNE,20,11.0,11.0,42,0.00,,CLR,0.00,VWS V14.01,2013-03-18 07:11:00,
2013-03-18 03:23:00,26.6,6.6,30.35,NNE,20,11.0,11.0,42,0.00,,CLR,0.00,VWS V14.01,2013-03-18 07:23:00,
2013-03-18 03:50:00,26.6,6.6,30.35,NNE,20,11.0,11.0,42,0.00,,CLR,0.00,VWS V14.01,2013-03-18 07:50:00,
2013-03-18 03:55:00,26.6,6.6,30.35,NNE,20,11.0,11.0,42,0.00,,CLR,0.00,VWS V14.01,2013-03-18 07:55:00,
2013-03-18 03:56:00,26.6,5.0,30.36,NNE,30,10.0,10.0,39,0.00,,CLR,0.00,VWS V14.01,2013-03-18 07:56:00,
2013-03-18 04:00:00,26.6,5.0,30.36,NNE,30,10.0,11.0,39,0.00,,CLR,0.00,VWS V14.01,2013-03-18 08:00:00,
2013-03-18 04:05:00,26.6,5.0,30.36,NNE,30,10.0,10.0,39,0.00,,CLR,0.00,VWS V14.01,2013-03-18 08:05:00,
2013-03-18 04:15:00,26.6,5.0,30.36,NNE,30,10.0,10.0,39,0.00,,CLR,0.00,VWS V14.01,2013-03-18 08:15:00,
2013-03-18 04:24:00,26.6,5.0,30.36,NNE,30,10.0,10.0,39,0.00,,CLR,0.00,VWS V14.01,2013-03-18 08:24:00,
2013-03-18 04:29:00,26.6,5.0,30.36,NNE,30,10.0,10.0,39,0.00,,CLR,0.00,VWS V14.01,2013-03-18 08:29:00,
2013-03-18 04:39:00,26.6,5.0,30.36,NNE,30,10.0,10.0,39,0.00,,CLR,0.00,VWS V14.01,2013-03-18 08:39:00,
2013-03-18 04:51:00,26.6,5.0,30.36,NNE,30,10.0,10.0,39,0.00,,CLR,0.00,VWS V14.01,2013-03-18 08:51:00,
2013-03-18 04:56:00,26.6,5.0,30.36,NNE,30,10.0,10.0,39,0.00,,CLR,0.00,VWS V14.01,2013-03-18 08:56:00,
2013-03-18 05:01:00,26.6,5.0,30.36,NNE,30,10.0,10.0,39,0.00,,CLR,0.00,VWS V14.01,2013-03-18 09:01:00,
2013-03-18 05:08:00,24.8,5.0,30.38,NE,40,9.0,9.0,42,0.00,,CLR,0.00,VWS V14.01,2013-03-18 09:08:00,
2013-03-18 05:20:00,24.8,5.0,30.38,NE,40,9.0,9.0,42,0.00,,CLR,0.00,VWS V14.01,2013-03-18 09:20:00,
2013-03-18 05:25:00,24.8,5.0,30.38,NE,40,9.0,9.0,42,0.00,,CLR,0.00,VWS V14.01,2013-03-18 09:25:00,
2013-03-18 05:30:00,24.8,5.0,30.38,NE,40,9.0,9.0,42,0.00,,CLR,0.00,VWS V14.01,2013-03-18 09:30:00,
2013-03-18 05:46:00,24.8,5.0,30.38,NE,40,9.0,9.0,42,0.00,,CLR,0.00,VWS V14.01,2013-03-18 09:46:00,
2013-03-18 05:52:00,24.8,5.0,30.38,NE,40,9.0,9.0,42,0.00,,CLR,0.00,VWS V14.01,2013-03-18 09:52:00,
2013-03-18 05:56:00,21.2,3.2,30.41,NNE,30,6.0,6.0,45,0.00,,CLR,0.00,VWS V14.01,2013-03-18 09:56:00,
2013-03-18 05:57:00,24.8,5.0,30.38,NE,40,9.0,9.0,42,0.00,,CLR,0.00,VWS V14.01,2013-03-18 09:57:00,
2013-03-18 06:02:00,21.2,3.2,30.41,NNE,30,6.0,6.0,45,0.00,,CLR,0.00,VWS V14.01,2013-03-18 10:02:00,
2013-03-18 06:08:00,21.2,3.2,30.41,NNE,30,6.0,6.0,45,0.00,,CLR,0.00,VWS V14.01,2013-03-18 10:08:00,
2013-03-18 06:25:00,21.2,3.2,30.41,NNE,30,6.0,6.0,45,0.00,,CLR,0.00,VWS V14.01,2013-03-18 10:25:00,
2013-03-18 06:35:00,21.2,3.2,30.41,NNE,30,6.0,6.0,45,0.00,,CLR,0.00,VWS V14.01,2013-03-18 10:35:00,
2013-03-18 06:40:00,21.2,3.2,30.41,NNE,30,6.0,6.0,45,0.00,,CLR,0.00,VWS V14.01,2013-03-18 10:40:00,
2013-03-18 06:49:00,21.2,3.2,30.41,NNE,30,6.0,6.0,45,0.00,,CLR,0.00,VWS V14.01,2013-03-18 10:49:00,
2013-03-18 06:54:00,21.2,3.2,30.41,NNE,30,6.0,6.0,45,0.00,,CLR,0.00,VWS V14.01,2013-03-18 10:54:00,
2013-03-18 06:56:00,21.2,3.2,30.43,NE,50,4.0,4.0,45,0.00,,CLR,0.00,VWS V14.01,2013-03-18 10:56:00,
2013-03-18 06:59:00,21.2,3.2,30.43,NE,50,4.0,6.0,45,0.00,,CLR,0.00,VWS V14.01,2013-03-18 10:59:00,
2013-03-18 07:04:00,21.2,3.2,30.43,NE,50,4.0,4.0,45,0.00,,CLR,0.00,VWS V14.01,2013-03-18 11:04:00,
2013-03-18 07:20:00,21.2,3.2,30.43,NE,50,4.0,4.0,45,0.00,,CLR,0.00,VWS V14.01,2013-03-18 11:20:00,
2013-03-18 07:25:00,21.2,3.2,30.43,NE,50,4.0,4.0,45,0.00,,CLR,0.00,VWS V14.01,2013-03-18 11:25:00,
2013-03-18 07:34:00,21.2,3.2,30.43,NE,50,4.0,4.0,45,0.00,,CLR,0.00,VWS V14.01,2013-03-18 11:34:00,
2013-03-18 07:40:00,21.2,3.2,30.43,NE,50,4.0,4.0,45,0.00,,CLR,0.00,VWS V14.01,2013-03-18 11:40:00,
2013-03-18 07:45:00,21.2,3.2,30.43,NE,50,4.0,4.0,45,0.00,,CLR,0.00,VWS V14.01,2013-03-18 11:45:00,
2013-03-18 07:52:00,21.2,3.2,30.43,NE,50,4.0,4.0,45,0.00,,CLR,0.00,VWS V14.01,2013-03-18 11:52:00,
2013-03-18 07:56:00,24.8,3.4,30.44,NE,40,8.0,8.0,39,0.00,,CLR,0.00,VWS V14.01,2013-03-18 11:56:00,
2013-03-18 07:57:00,21.2,3.2,30.43,NE,50,4.0,4.0,45,0.00,,CLR,0.00,VWS V14.01,2013-03-18 11:57:00,
2013-03-18 08:02:00,24.8,3.4,30.44,NE,40,8.0,8.0,39,0.00,,CLR,0.00,VWS V14.01,2013-03-18 12:02:00,
2013-03-18 08:19:00,24.8,3.4,30.44,NE,40,8.0,8.0,39,0.00,,CLR,0.00,VWS V14.01,2013-03-18 12:19:00,
2013-03-18 08:24:00,24.8,3.4,30.44,NE,40,8.0,8.0,39,0.00,,CLR,0.00,VWS V14.01,2013-03-18 12:24:00,
2013-03-18 08:29:00,24.8,3.4,30.44,NE,40,8.0,8.0,39,0.00,,CLR,0.00,VWS V14.01,2013-03-18 12:29:00,
2013-03-18 08:39:00,24.8,3.4,30.44,NE,40,8.0,8.0,39,0.00,,CLR,0.00,VWS V14.01,2013-03-18 12:39:00,
2013-03-18 08:44:00,24.8,3.4,30.44,NE,40,8.0,8.0,39,0.00,,CLR,0.00,VWS V14.01,2013-03-18 12:44:00,
2013-03-18 08:49:00,24.8,3.4,30.44,NE,40,8.0,8.0,39,0.00,,CLR,0.00,VWS V14.01,2013-03-18 12:49:00,
2013-03-18 08:54:00,24.8,3.4,30.44,NE,40,8.0,8.0,39,0.00,,CLR,0.00,VWS V14.01,2013-03-18 12:54:00,
2013-03-18 08:56:00,26.6,1.4,30.44,NE,50,10.0,10.0,33,0.00,,CLR,0.00,VWS V14.01,2013-03-18 12:56:00,
2013-03-18 08:59:00,24.8,3.4,30.44,NE,40,8.0,8.0,39,0.00,,CLR,0.00,VWS V14.01,2013-03-18 12:59:00,
2013-03-18 09:04:00,26.6,1.4,30.44,NE,50,10.0,10.0,33,0.00,,CLR,0.00,VWS V14.01,2013-03-18 13:04:00,
2013-03-18 09:09:00,26.6,1.4,30.44,NE,50,10.0,10.0,33,0.00,,CLR,0.00,VWS V14.01,2013-03-18 13:09:00,
2013-03-18 09:25:00,26.6,1.4,30.44,NE,50,10.0,10.0,33,0.00,,CLR,0.00,VWS V14.01,2013-03-18 13:25:00,
2013-03-18 09:30:00,26.6,1.4,30.44,NE,50,10.0,10.0,33,0.00,,CLR,0.00,VWS V14.01,2013-03-18 13:30:00,
2013-03-18 09:39:00,26.6,1.4,30.44,NE,50,10.0,10.0,33,0.00,,CLR,0.00,VWS V14.01,2013-03-18 13:39:00,
2013-03-18 09:44:00,26.6,1.4,30.44,NE,50,10.0,10.0,33,0.00,,CLR,0.00,VWS V14.01,2013-03-18 13:44:00,
2013-03-18 09:49:00,26.6,1.4,30.44,NE,50,10.0,10.0,33,0.00,,CLR,0.00,VWS V14.01,2013-03-18 13:49:00,
2013-03-18 09:54:00,26.6,1.4,30.44,NE,50,10.0,10.0,33,0.00,,CLR,0.00,VWS V14.01,2013-03-18 13:54:00,
2013-03-18 09:56:00,26.6,1.4,30.43,NE,50,8.0,8.0,33,0.00,,CLR,0.00,VWS V14.01,2013-03-18 13:56:00,
2013-03-18 09:59:00,26.6,1.4,30.43,NE,50,8.0,10.0,33,0.00,,CLR,0.00,VWS V14.01,2013-03-18 13:59:00,
2013-03-18 10:04:00,26.6,1.4,30.43,NE,50,8.0,8.0,33,0.00,,CLR,0.00,VWS V14.01,2013-03-18 14:04:00,
2013-03-18 10:10:00,26.6,1.4,30.43,NE,50,8.0,8.0,33,0.00,,CLR,0.00,VWS V14.01,2013-03-18 14:10:00,
2013-03-18 10:15:00,26.6,1.4,30.43,NE,50,8.0,8.0,33,0.00,,CLR,0.00,VWS V14.01,2013-03-18 14:15:00,
2013-03-18 10:20:00,26.6,1.4,30.43,NE,50,8.0,8.0,33,0.00,,CLR,0.00,VWS V14.01,2013-03-18 14:20:00,
2013-03-18 10:25:00,26.6,1.4,30.43,NE,50,8.0,8.0,33,0.00,,CLR,0.00,VWS V14.01,2013-03-18 14:25:00,
2013-03-18 10:34:00,26.6,1.4,30.43,NE,50,8.0,8.0,33,0.00,,CLR,0.00,VWS V14.01,2013-03-18 14:34:00,
2013-03-18 10:40:00,26.6,1.4,30.43,NE,50,8.0,8.0,33,0.00,,CLR,0.00,VWS V14.01,2013-03-18 14:40:00,
2013-03-18 10:45:00,26.6,1.4,30.43,NE,50,8.0,8.0,33,0.00,,CLR,0.00,VWS V14.01,2013-03-18 14:45:00,
2013-03-18 10:52:00,26.6,1.4,30.43,NE,50,8.0,8.0,33,0.00,,CLR,0.00,VWS V14.01,2013-03-18 14:52:00,
2013-03-18 10:56:00,30.2,1.0,30.42,NE,50,6.0,6.0,28,0.00,,CLR,0.00,VWS V14.01,2013-03-18 14:56:00,
2013-03-18 10:57:00,26.6,1.4,30.43,NE,50,8.0,8.0,33,0.00,,CLR,0.00,VWS V14.01,2013-03-18 14:57:00,
2013-03-18 11:02:00,30.2,1.0,30.42,NE,50,6.0,6.0,28,0.00,,CLR,0.00,VWS V14.01,2013-03-18 15:02:00,
2013-03-18 11:09:00,30.2,1.0,30.42,NE,50,6.0,6.0,28,0.00,,CLR,0.00,VWS V14.01,2013-03-18 15:09:00,
2013-03-18 11:25:00,30.2,1.0,30.42,NE,50,6.0,6.0,28,0.00,,CLR,0.00,VWS V14.01,2013-03-18 15:25:00,
2013-03-18 11:30:00,30.2,1.0,30.42,NE,50,6.0,6.0,28,0.00,,CLR,0.00,VWS V14.01,2013-03-18 15:30:00,
2013-03-18 11:38:00,30.2,1.0,30.42,NE,50,6.0,6.0,28,0.00,,CLR,0.00,VWS V14.01,2013-03-18 15:38:00,
2013-03-18 11:45:00,30.2,1.0,30.42,NE,50,6.0,6.0,28,0.00,,CLR,0.00,VWS V14.01,2013-03-18 15:45:00,
2013-03-18 11:52:00,30.2,1.0,30.42,NE,50,6.0,6.0,28,0.00,,CLR,0.00,VWS V14.01,2013-03-18 15:52:00,
2013-03-18 11:56:00,32.0,3.3,30.41,SSE,160,9.0,9.0,29,0.00,,CLR,0.00,VWS V14.01,2013-03-18 15:56:00,
2013-03-18 11:57:00,30.2,1.0,30.42,NE,50,6.0,6.0,28,0.00,,CLR,0.00,VWS V14.01,2013-03-18 15:57:00,
2013-03-18 12:02:00,32.0,3.3,30.41,SSE,160,9.0,9.0,29,0.00,,CLR,0.00,VWS V14.01,2013-03-18 16:02:00,
2013-03-18 12:09:00,32.0,3.3,30.41,SSE,160,9.0,9.0,29,0.00,,CLR,0.00,VWS V14.01,2013-03-18 16:09:00,
2013-03-18 12:15:00,32.0,3.3,30.41,SSE,160,9.0,9.0,29,0.00,,CLR,0.00,VWS V14.01,2013-03-18 16:15:00,
2013-03-18 12:25:00,32.0,3.3,30.41,SSE,160,9.0,9.0,29,0.00,,CLR,0.00,VWS V14.01,2013-03-18 16:25:00,
2013-03-18 12:30:00,32.0,3.3,30.41,SSE,160,9.0,9.0,29,0.00,,CLR,0.00,VWS V14.01,2013-03-18 16:30:00,
2013-03-18 12:35:00,32.0,3.3,30.41,SSE,160,9.0,9.0,29,0.00,,CLR,0.00,VWS V14.01,2013-03-18 16:35:00,
2013-03-18 12:43:00,32.0,3.3,30.41,SSE,160,9.0,9.0,29,0.00,,CLR,0.00,VWS V14.01,2013-03-18 16:43:00,
2013-03-18 12:52:00,32.0,3.3,30.41,SSE,160,9.0,9.0,29,0.00,,CLR,0.00,VWS V14.01,2013-03-18 16:52:00,
2013-03-18 12:56:00,32.0,10.4,30.41,SE,130,10.0,10.0,40,0.00,,CLR,0.00,VWS V14.01,2013-03-18 16:56:00,
2013-03-18 12:57:00,32.0,3.3,30.41,SSE,160,9.0,9.0,29,0.00,,CLR,0.00,VWS V14.01,2013-03-18 16:57:00,
2013-03-18 13:02:00,32.0,10.4,30.41,SE,130,10.0,10.0,40,0.00,,CLR,0.00,VWS V14.01,2013-03-18 17:02:00,
2013-03-18 13:13:00,32.0,10.4,30.41,SE,130,10.0,10.0,40,0.00,,CLR,0.00,VWS V14.01,2013-03-18 17:13:00,
2013-03-18 13:24:00,32.0,10.4,30.41,SE,130,10.0,10.0,40,0.00,,CLR,0.00,VWS V14.01,2013-03-18 17:24:00,
2013-03-18 13:29:00,32.0,10.4,30.41,SE,130,10.0,10.0,40,0.00,,CLR,0.00,VWS V14.01,2013-03-18 17:29:00,
2013-03-18 13:44:00,32.0,10.4,30.41,SE,130,10.0,10.0,40,0.00,,CLR,0.00,VWS V14.01,2013-03-18 17:44:00,
2013-03-18 13:51:00,32.0,10.4,30.41,SE,130,10.0,10.0,40,0.00,,CLR,0.00,VWS V14.01,2013-03-18 17:51:00,
2013-03-18 13:56:00,32.0,10.4,30.41,SE,130,10.0,10.0,40,0.00,,CLR,0.00,VWS V14.01,2013-03-18 17:56:00,
2013-03-18 14:01:00,33.8,14.2,30.39,SE,130,10.0,10.0,44,0.00,,CLR,0.00,VWS V14.01,2013-03-18 18:01:00,
2013-03-18 14:10:00,33.8,14.2,30.39,SE,130,10.0,10.0,44,0.00,,CLR,0.00,VWS V14.01,2013-03-18 18:10:00,
2013-03-18 14:19:00,33.8,14.2,30.39,SE,130,10.0,10.0,44,0.00,,CLR,0.00,VWS V14.01,2013-03-18 18:19:00,
2013-03-18 14:25:00,33.8,14.2,30.39,SE,130,10.0,10.0,44,0.00,,CLR,0.00,VWS V14.01,2013-03-18 18:25:00,
2013-03-18 14:30:00,33.8,14.2,30.39,SE,130,10.0,10.0,44,0.00,,CLR,0.00,VWS V14.01,2013-03-18 18:30:00,
2013-03-18 14:40:00,33.8,14.2,30.39,SE,130,10.0,10.0,44,0.00,,CLR,0.00,VWS V14.01,2013-03-18 18:40:00,
2013-03-18 14:51:00,33.8,14.2,30.39,SE,130,10.0,10.0,44,0.00,,CLR,0.00,VWS V14.01,2013-03-18 18:51:00,
2013-03-18 14:56:00,33.8,14.2,30.39,SE,130,10.0,10.0,44,0.00,,CLR,0.00,VWS V14.01,2013-03-18 18:56:00,
2013-03-18 15:01:00,33.8,15.7,30.34,East,90,13.0,13.0,47,0.00,,CLR,0.00,VWS V14.01,2013-03-18 19:01:00,
2013-03-18 15:15:00,33.8,15.7,30.34,East,90,13.0,13.0,47,0.00,,CLR,0.00,VWS V14.01,2013-03-18 19:15:00,
2013-03-18 15:21:00,33.8,15.7,30.34,East,90,13.0,13.0,47,0.00,,CLR,0.00,VWS V14.01,2013-03-18 19:21:00,
2013-03-18 15:30:00,33.8,15.7,30.34,East,90,13.0,13.0,47,0.00,,CLR,0.00,VWS V14.01,2013-03-18 19:30:00,
2013-03-18 15:39:00,33.8,15.7,30.34,East,90,13.0,13.0,47,0.00,,CLR,0.00,VWS V14.01,2013-03-18 19:39:00,
2013-03-18 15:49:00,33.8,15.7,30.34,East,90,13.0,13.0,47,0.00,,CLR,0.00,VWS V14.01,2013-03-18 19:49:00,
2013-03-18 15:54:00,33.8,15.7,30.34,East,90,13.0,13.0,47,0.00,,CLR,0.00,VWS V14.01,2013-03-18 19:54:00,
2013-03-18 15:56:00,33.8,19.4,30.33,East,90,12.0,12.0,55,0.00,,CLR,0.00,VWS V14.01,2013-03-18 19:56:00,
2013-03-18 15:59:00,33.8,15.7,30.34,East,90,13.0,13.0,47,0.00,,CLR,0.00,VWS V14.01,2013-03-18 19:59:00,
2013-03-18 16:04:00,33.8,19.4,30.33,East,90,12.0,12.0,55,0.00,,CLR,0.00,VWS V14.01,2013-03-18 20:04:00,
2013-03-18 16:20:00,33.8,19.4,30.33,East,90,12.0,12.0,55,0.00,,CLR,0.00,VWS V14.01,2013-03-18 20:20:00,
2013-03-18 16:30:00,33.8,19.4,30.33,East,90,12.0,12.0,55,0.00,,CLR,0.00,VWS V14.01,2013-03-18 20:30:00,
2013-03-18 16:51:00,33.8,19.4,30.33,East,90,12.0,12.0,55,0.00,,CLR,0.00,VWS V14.01,2013-03-18 20:51:00,
2013-03-18 16:56:00,33.8,19.4,30.33,East,90,12.0,12.0,55,0.00,,CLR,0.00,VWS V14.01,2013-03-18 20:56:00,
2013-03-18 17:01:00,33.8,17.6,30.30,East,100,12.0,12.0,51,0.00,,OVC110,0.00,VWS V14.01,2013-03-18 21:01:00,
2013-03-18 17:15:00,33.8,17.6,30.30,East,100,12.0,12.0,51,0.00,,OVC110,0.00,VWS V14.01,2013-03-18 21:15:00,
2013-03-18 17:20:00,33.8,17.6,30.30,East,100,12.0,12.0,51,0.00,,OVC110,0.00,VWS V14.01,2013-03-18 21:20:00,
2013-03-18 17:25:00,33.8,17.6,30.30,East,100,12.0,12.0,51,0.00,,OVC110,0.00,VWS V14.01,2013-03-18 21:25:00,
2013-03-18 17:35:00,33.8,17.6,30.30,East,100,12.0,12.0,51,0.00,,OVC110,0.00,VWS V14.01,2013-03-18 21:35:00,
2013-03-18 17:40:00,33.8,17.6,30.30,East,100,12.0,12.0,51,0.00,,OVC110,0.00,VWS V14.01,2013-03-18 21:40:00,
2013-03-18 17:52:00,33.8,17.6,30.30,East,100,12.0,12.0,51,0.00,,OVC110,0.00,VWS V14.01,2013-03-18 21:52:00,
2013-03-18 17:56:00,33.8,19.4,30.28,East,100,12.0,12.0,55,0.00,,OVC100,0.00,VWS V14.01,2013-03-18 21:56:00,
2013-03-18 17:57:00,33.8,17.6,30.30,East,100,12.0,12.0,51,0.00,,OVC110,0.00,VWS V14.01,2013-03-18 21:57:00,
2013-03-18 18:02:00,33.8,19.4,30.28,East,100,12.0,12.0,55,0.00,,OVC100,0.00,VWS V14.01,2013-03-18 22:02:00,
2013-03-18 18:10:00,33.8,19.4,30.28,East,100,12.0,12.0,55,0.00,,OVC100,0.00,VWS V14.01,2013-03-18 22:10:00,
2013-03-18 18:15:00,33.8,19.4,30.28,East,100,12.0,12.0,55,0.00,,OVC100,0.00,VWS V14.01,2013-03-18 22:15:00,
2013-03-18 18:24:00,33.8,19.4,30.28,East,100,12.0,12.0,55,0.00,,OVC100,0.00,VWS V14.01,2013-03-18 22:24:00,
2013-03-18 18:34:00,33.8,19.4,30.28,East,100,12.0,12.0,55,0.00,,OVC100,0.00,VWS V14.01,2013-03-18 22:34:00,
2013-03-18 18:39:00,33.8,19.4,30.28,East,100,12.0,12.0,55,0.00,,OVC100,0.00,VWS V14.01,2013-03-18 22:39:00,
2013-03-18 18:45:00,33.8,19.4,30.28,East,100,12.0,12.0,55,0.00,,OVC100,0.00,VWS V14.01,2013-03-18 22:45:00,
2013-03-18 18:51:00,33.8,19.4,30.28,East,100,12.0,12.0,55,0.00,,OVC100,0.00,VWS V14.01,2013-03-18 22:51:00,
2013-03-18 18:56:00,33.8,19.4,30.28,East,100,12.0,12.0,55,0.00,,OVC100,0.00,VWS V14.01,2013-03-18 22:56:00,
2013-03-18 19:01:00,33.8,19.4,30.28,ESE,110,13.0,13.0,55,0.00,,OVC085,0.00,VWS V14.01,2013-03-18 23:01:00,
2013-03-18 19:15:00,33.8,19.4,30.28,ESE,110,13.0,13.0,55,0.00,,OVC085,0.00,VWS V14.01,2013-03-18 23:15:00,
2013-03-18 19:21:00,33.8,19.4,30.28,ESE,110,13.0,13.0,55,0.00,,OVC085,0.00,VWS V14.01,2013-03-18 23:21:00,
2013-03-18 19:35:00,33.8,19.4,30.28,ESE,110,13.0,13.0,55,0.00,,OVC085,0.00,VWS V14.01,2013-03-18 23:35:00,
2013-03-18 19:44:00,33.8,19.4,30.28,ESE,110,13.0,13.0,55,0.00,,OVC085,0.00,VWS V14.01,2013-03-18 23:44:00,
2013-03-18 19:50:00,33.8,19.4,30.28,ESE,110,13.0,13.0,55,0.00,,OVC085,0.00,VWS V14.01,2013-03-18 23:50:00,
2013-03-18 19:55:00,33.8,19.4,30.28,ESE,110,13.0,13.0,55,0.00,,OVC085,0.00,VWS V14.01,2013-03-18 23:55:00,
2013-03-18 19:56:00,33.8,22.9,30.25,ESE,120,14.0,14.0,64,0.00,,OVC044,0.00,VWS V14.01,2013-03-18 23:56:00,
2013-03-18 20:00:00,33.8,22.9,30.25,ESE,120,14.0,14.0,64,0.00,,OVC044,0.00,VWS V14.01,2013-03-19 00:00:00,
2013-03-18 20:05:00,33.8,22.9,30.25,ESE,120,14.0,14.0,64,0.00,,OVC044,0.00,VWS V14.01,2013-03-19 00:05:00,
2013-03-18 20:24:00,33.8,22.9,30.25,ESE,120,14.0,14.0,64,0.00,,OVC044,0.00,VWS V14.01,2013-03-19 00:24:00,
2013-03-18 20:39:00,33.8,22.9,30.25,ESE,120,14.0,14.0,64,0.00,,OVC044,0.00,VWS V14.01,2013-03-19 00:39:00,
2013-03-18 20:44:00,33.8,22.9,30.25,ESE,120,14.0,14.0,64,0.00,,OVC044,0.00,VWS V14.01,2013-03-19 00:44:00,
2013-03-18 20:50:00,33.8,22.9,30.25,ESE,120,14.0,14.0,64,0.00,,OVC044,0.00,VWS V14.01,2013-03-19 00:50:00,
2013-03-18 20:55:00,33.8,22.9,30.25,ESE,120,14.0,14.0,64,0.00,,OVC044,0.00,VWS V14.01,2013-03-19 00:55:00,
2013-03-18 20:56:00,33.8,22.9,30.24,East,100,17.0,17.0,64,0.00,,,0.00,VWS V14.01,2013-03-19 00:56:00,
2013-03-18 21:00:00,33.8,22.9,30.24,East,100,17.0,17.0,64,0.00,,,0.00,VWS V14.01,2013-03-19 01:00:00,
2013-03-18 21:05:00,33.8,22.9,30.24,East,100,17.0,17.0,64,0.00,,,0.00,VWS V14.01,2013-03-19 01:05:00,
2013-03-18 21:14:00,32.0,24.7,30.24,East,80,14.0,14.0,74,0.00,,,0.00,VWS V14.01,2013-03-19 01:14:00,
2013-03-18 21:15:00,33.8,22.9,30.24,East,100,17.0,17.0,64,0.00,,,0.00,VWS V14.01,2013-03-19 01:15:00,
2013-03-18 21:20:00,32.0,24.7,30.24,East,80,14.0,14.0,74,0.00,,,0.00,VWS V14.01,2013-03-19 01:20:00,
2013-03-18 21:25:00,32.0,24.7,30.24,East,80,14.0,14.0,74,0.00,,,0.00,VWS V14.01,2013-03-19 01:25:00,
2013-03-18 21:40:00,30.2,28.4,30.22,East,80,12.0,12.0,93,0.00,,,0.00,VWS V14.01,2013-03-19 01:40:00,
2013-03-18 21:43:00,30.2,28.4,30.22,East,80,12.0,14.0,93,0.00,,,0.00,VWS V14.01,2013-03-19 01:43:00,
2013-03-18 21:48:00,30.2,28.4,30.22,East,80,12.0,12.0,93,0.00,,,0.00,VWS V14.01,2013-03-19 01:48:00,
2013-03-18 21:53:00,30.2,28.4,30.22,East,80,14.0,14.0,93,0.00,,,0.00,VWS V14.01,2013-03-19 01:53:00,
2013-03-18 21:55:00,30.2,28.4,30.22,East,80,12.0,12.0,93,0.00,,,0.00,VWS V14.01,2013-03-19 01:55:00,
2013-03-18 22:01:00,30.2,28.4,30.22,East,80,14.0,14.0,93,0.00,,,0.00,VWS V14.01,2013-03-19 02:01:00,
2013-03-18 22:02:00,30.2,28.4,30.21,East,80,17.0,17.0,93,0.00,,,0.00,VWS V14.01,2013-03-19 02:02:00,
2013-03-18 22:06:00,30.2,28.4,30.21,East,80,17.0,17.0,93,0.00,,,0.00,VWS V14.01,2013-03-19 02:06:00,
2013-03-18 22:09:00,30.2,28.4,30.21,East,90,14.0,14.0,93,0.00,,,0.00,VWS V14.01,2013-03-19 02:09:00,
2013-03-18 22:11:00,30.2,28.4,30.21,East,80,17.0,17.0,93,0.00,,,0.00,VWS V14.01,2013-03-19 02:11:00,
2013-03-18 22:16:00,30.2,28.4,30.21,East,90,14.0,14.0,93,0.00,,,0.00,VWS V14.01,2013-03-19 02:16:00,
2013-03-18 22:24:00,30.2,28.4,30.21,East,90,14.0,14.0,93,0.00,,,0.00,VWS V14.01,2013-03-19 02:24:00,
2013-03-18 22:30:00,30.2,28.4,30.21,East,90,14.0,14.0,93,0.00,,,0.00,VWS V14.01,2013-03-19 02:30:00,
2013-03-18 22:35:00,30.2,28.4,30.21,East,90,14.0,14.0,93,0.00,,,0.00,VWS V14.01,2013-03-19 02:35:00,
2013-03-18 22:49:00,30.2,28.4,30.21,East,90,14.0,14.0,93,0.00,,,0.00,VWS V14.01,2013-03-19 02:49:00,
2013-03-18 22:55:00,30.2,28.4,30.21,East,90,14.0,14.0,93,0.00,,,0.00,VWS V14.01,2013-03-19 02:55:00,
2013-03-18 22:56:00,32.0,26.5,30.18,ENE,70,11.0,11.0,80,0.00,,,0.00,VWS V14.01,2013-03-19 02:56:00,
2013-03-18 23:00:00,32.0,26.5,30.18,ENE,70,11.0,14.0,80,0.00,,,0.00,VWS V14.01,2013-03-19 03:00:00,
2013-03-18 23:05:00,32.0,26.5,30.18,ENE,70,11.0,11.0,80,0.00,,,0.00,VWS V14.01,2013-03-19 03:05:00,
2013-03-18 23:24:00,32.0,26.5,30.18,ENE,70,11.0,11.0,80,0.00,,,0.00,VWS V14.01,2013-03-19 03:24:00,
2013-03-18 23:31:00,32.0,26.5,30.18,ENE,70,11.0,11.0,80,0.00,,,0.00,VWS V14.01,2013-03-19 03:31:00,
2013-03-18 23:50:00,32.0,26.5,30.18,ENE,70,11.0,11.0,80,0.00,,,0.00,VWS V14.01,2013-03-19 03:50:00,
2013-03-18 23:55:00,32.0,26.5,30.18,ENE,70,11.0,11.0,80,0.00,,,0.00,VWS V14.01,2013-03-19 03:55:00,